createdAt,value
2019-02-25T00:00:49.330Z,76.66
2019-02-25T00:01:49.457Z,71.53
2019-02-25T00:02:49.596Z,68.36
2019-02-25T00:03:49.731Z,73.49
2019-02-25T00:04:49.859Z,70.07
2019-02-25T00:05:49.977Z,76.66
2019-02-25T00:06:50.099Z,68.60
2019-02-25T00:07:50.222Z,73.97
2019-02-25T00:08:50.346Z,67.87
2019-02-25T00:09:50.464Z,75.44
2019-02-25T00:10:50.591Z,72.75
2019-02-25T00:11:50.721Z,71.78
2019-02-25T00:12:50.849Z,78.86
2019-02-25T00:13:50.986Z,70.07
2019-02-25T00:14:51.101Z,68.85
2019-02-25T00:15:51.225Z,73.97
2019-02-25T00:16:51.361Z,69.34
2019-02-25T00:17:51.486Z,73.24
2019-02-25T00:18:51.615Z,69.09
2019-02-25T00:19:51.760Z,68.85
2019-02-25T00:20:51.874Z,68.36
2019-02-25T00:21:51.999Z,72.75
2019-02-25T00:22:52.121Z,69.58
2019-02-25T00:23:52.257Z,70.31
2019-02-25T00:24:52.393Z,79.35
2019-02-25T00:25:52.523Z,71.29
2019-02-25T00:26:52.647Z,71.53
2019-02-25T00:27:52.775Z,67.87
2019-02-25T00:28:52.932Z,72.27
2019-02-25T00:29:53.056Z,72.51
2019-02-25T00:30:53.173Z,71.04
2019-02-25T00:31:53.299Z,70.80
2019-02-25T00:32:53.427Z,69.82
2019-02-25T00:33:53.542Z,72.02
2019-02-25T00:34:53.667Z,71.78
2019-02-25T00:35:53.803Z,75.44
2019-02-25T00:36:53.921Z,78.61
2019-02-25T00:37:54.056Z,71.78
2019-02-25T00:38:54.211Z,68.60
2019-02-25T00:39:54.323Z,73.49
2019-02-25T00:40:54.450Z,75.68
2019-02-25T00:41:54.581Z,77.15
2019-02-25T00:42:54.704Z,72.75
2019-02-25T00:43:54.827Z,71.53
2019-02-25T00:44:54.954Z,73.24
2019-02-25T00:45:55.091Z,69.82
2019-02-25T00:46:55.214Z,69.58
2019-02-25T00:47:55.348Z,74.22
2019-02-25T00:48:55.476Z,75.68
2019-02-25T00:49:55.602Z,74.71
2019-02-25T00:50:55.727Z,74.46
2019-02-25T00:51:55.857Z,72.51
2019-02-25T00:52:55.991Z,72.51
2019-02-25T00:53:56.115Z,72.27
2019-02-25T00:54:56.256Z,69.58
2019-02-25T00:55:56.370Z,70.80
2019-02-25T00:56:56.498Z,72.27
2019-02-25T00:57:56.615Z,71.53
2019-02-25T00:58:56.740Z,75.20
2019-02-25T00:59:56.861Z,72.51
2019-02-25T01:00:57.029Z,72.75
2019-02-25T01:01:57.130Z,72.27
2019-02-25T01:02:57.248Z,69.09
2019-02-25T01:03:57.377Z,74.46
2019-02-25T01:04:57.553Z,74.71
2019-02-25T01:05:57.671Z,71.78
2019-02-25T01:06:57.796Z,74.22
2019-02-25T01:07:57.925Z,73.49
2019-02-25T01:08:58.103Z,72.02
2019-02-25T01:09:58.216Z,69.82
2019-02-25T01:10:58.333Z,71.04
2019-02-25T01:11:58.514Z,73.00
2019-02-25T01:12:58.615Z,72.27
2019-02-25T01:13:58.744Z,71.78
2019-02-25T01:14:58.871Z,71.29
2019-02-25T01:15:59.022Z,72.75
2019-02-25T01:16:59.140Z,74.22
2019-02-25T01:18:00.023Z,70.07
2019-02-25T01:18:59.394Z,72.02
2019-02-25T01:19:59.547Z,66.16
2019-02-25T01:20:59.669Z,72.02
2019-02-25T01:21:59.789Z,74.46
2019-02-25T01:22:59.916Z,69.82
2019-02-25T01:24:00.070Z,71.78
2019-02-25T01:25:00.301Z,74.46
2019-02-25T01:26:00.308Z,69.34
2019-02-25T01:27:00.444Z,73.73
2019-02-25T01:28:00.599Z,75.20
2019-02-25T01:29:00.701Z,73.49
2019-02-25T01:30:00.825Z,73.73
2019-02-25T01:31:00.974Z,74.22
2019-02-25T01:32:01.118Z,72.02
2019-02-25T01:33:01.225Z,73.00
2019-02-25T01:34:01.358Z,73.24
2019-02-25T01:35:01.493Z,71.53
2019-02-25T01:36:01.604Z,72.51
2019-02-25T01:37:01.729Z,73.24
2019-02-25T01:38:01.871Z,69.09
2019-02-25T01:39:01.994Z,72.51
2019-02-25T01:40:02.145Z,73.24
2019-02-25T01:41:02.277Z,73.00
2019-02-25T01:42:02.407Z,73.24
2019-02-25T01:43:02.537Z,73.00
2019-02-25T01:44:02.654Z,72.02
2019-02-25T01:45:02.802Z,75.68
2019-02-25T01:46:02.930Z,72.75
2019-02-25T01:47:03.067Z,70.56
2019-02-25T01:48:03.182Z,76.90
2019-02-25T01:49:03.338Z,73.73
2019-02-25T01:50:03.459Z,73.00
2019-02-25T01:51:03.586Z,71.29
2019-02-25T01:52:03.707Z,72.02
2019-02-25T01:53:03.854Z,72.27
2019-02-25T01:54:03.977Z,69.82
2019-02-25T01:55:04.113Z,67.87
2019-02-25T01:56:04.223Z,72.02
2019-02-25T01:57:04.366Z,74.71
2019-02-25T01:58:04.479Z,76.90
2019-02-25T01:59:04.604Z,73.97
2019-02-25T02:00:04.729Z,74.71
2019-02-25T02:01:04.881Z,73.73
2019-02-25T02:02:04.998Z,73.73
2019-02-25T02:03:05.128Z,74.22
2019-02-25T02:04:05.250Z,72.27
2019-02-25T02:05:05.403Z,75.44
2019-02-25T02:06:05.529Z,72.51
2019-02-25T02:07:05.661Z,69.82
2019-02-25T02:08:05.782Z,73.73
2019-02-25T02:09:05.916Z,72.75
2019-02-25T02:10:06.038Z,76.17
2019-02-25T02:11:06.164Z,73.49
2019-02-25T02:12:06.285Z,77.39
2019-02-25T02:13:14.011Z,77.64
2019-02-25T02:14:06.542Z,77.39
2019-02-25T02:15:06.670Z,76.17
2019-02-25T02:16:06.794Z,77.15
2019-02-25T02:17:06.919Z,75.68
2019-02-25T02:18:07.052Z,77.88
2019-02-25T02:19:07.173Z,77.15
2019-02-25T02:20:07.303Z,78.13
2019-02-25T02:21:07.428Z,76.42
2019-02-25T02:22:07.550Z,78.86
2019-02-25T02:23:07.690Z,78.37
2019-02-25T02:24:07.829Z,78.37
2019-02-25T02:25:07.948Z,76.17
2019-02-25T02:26:08.071Z,76.42
2019-02-25T02:27:08.197Z,76.90
2019-02-25T02:28:08.336Z,78.13
2019-02-25T02:29:08.459Z,79.10
2019-02-25T02:30:08.592Z,77.15
2019-02-25T02:31:08.731Z,77.15
2019-02-25T02:32:08.907Z,78.13
2019-02-25T02:33:09.008Z,77.15
2019-02-25T02:34:09.106Z,76.66
2019-02-25T02:35:09.279Z,76.90
2019-02-25T02:36:11.565Z,78.13
2019-02-25T02:37:09.469Z,77.64
2019-02-25T02:38:09.586Z,77.15
2019-02-25T02:39:09.733Z,77.39
2019-02-25T02:40:09.886Z,77.88
2019-02-25T02:41:09.987Z,77.39
2019-02-25T02:42:10.121Z,77.64
2019-02-25T02:43:10.223Z,77.39
2019-02-25T02:44:10.321Z,76.90
2019-02-25T02:45:10.447Z,78.13
2019-02-25T02:46:10.571Z,77.39
2019-02-25T02:47:10.725Z,77.88
2019-02-25T02:48:10.851Z,77.39
2019-02-25T02:49:10.975Z,77.64
2019-02-25T02:50:11.169Z,77.15
2019-02-25T02:51:11.253Z,77.39
2019-02-25T02:52:11.383Z,76.66
2019-02-25T02:53:11.508Z,78.13
2019-02-25T02:54:11.664Z,76.90
2019-02-25T02:55:11.785Z,76.90
2019-02-25T02:56:11.910Z,77.39
2019-02-25T02:57:12.039Z,76.90
2019-02-25T02:58:12.163Z,77.39
2019-02-25T02:59:12.293Z,78.86
2019-02-25T03:00:12.415Z,79.35
2019-02-25T03:01:12.546Z,76.90
2019-02-25T03:02:12.661Z,79.10
2019-02-25T03:03:12.789Z,77.15
2019-02-25T03:04:12.946Z,76.90
2019-02-25T03:05:13.071Z,78.61
2019-02-25T03:06:13.195Z,78.13
2019-02-25T03:07:13.321Z,78.61
2019-02-25T03:08:13.479Z,76.42
2019-02-25T03:09:13.596Z,77.15
2019-02-25T03:10:13.716Z,77.39
2019-02-25T03:11:13.846Z,77.15
2019-02-25T03:12:13.955Z,77.39
2019-02-25T03:13:14.079Z,76.42
2019-02-25T03:14:14.206Z,76.42
2019-02-25T03:15:14.342Z,77.15
2019-02-25T03:16:14.479Z,77.15
2019-02-25T03:17:14.603Z,76.66
2019-02-25T03:18:14.733Z,76.42
2019-02-25T03:19:14.855Z,77.15
2019-02-25T03:20:14.988Z,77.39
2019-02-25T03:21:15.110Z,77.39
2019-02-25T03:22:15.233Z,77.15
2019-02-25T03:23:15.360Z,76.90
2019-02-25T03:24:15.500Z,76.66
2019-02-25T03:25:15.622Z,78.13
2019-02-25T03:26:15.745Z,75.68
2019-02-25T03:27:15.871Z,77.15
2019-02-25T03:28:16.024Z,75.93
2019-02-25T03:29:16.124Z,77.15
2019-02-25T03:30:16.263Z,76.90
2019-02-25T03:31:16.377Z,75.68
2019-02-25T03:32:16.522Z,76.90
2019-02-25T03:33:16.646Z,78.13
2019-02-25T03:34:16.775Z,75.68
2019-02-25T03:35:16.917Z,76.42
2019-02-25T03:36:17.056Z,77.15
2019-02-25T03:37:17.173Z,76.42
2019-02-25T03:38:17.304Z,78.61
2019-02-25T03:39:17.429Z,77.15
2019-02-25T03:40:17.570Z,77.15
2019-02-25T03:41:17.689Z,78.37
2019-02-25T03:42:17.822Z,76.17
2019-02-25T03:43:17.962Z,76.90
2019-02-25T03:44:18.079Z,76.42
2019-02-25T03:45:18.206Z,78.13
2019-02-25T03:46:18.331Z,76.42
2019-02-25T03:47:18.486Z,77.64
2019-02-25T03:48:18.597Z,78.13
2019-02-25T03:49:18.712Z,76.90
2019-02-25T03:50:18.847Z,77.15
2019-02-25T03:51:18.965Z,77.15
2019-02-25T03:52:19.095Z,76.66
2019-02-25T03:53:19.239Z,76.42
2019-02-25T03:54:19.367Z,77.64
2019-02-25T03:55:19.489Z,77.39
2019-02-25T03:56:19.649Z,79.59
2019-02-25T03:57:19.761Z,76.42
2019-02-25T03:58:19.884Z,77.39
2019-02-25T03:59:20.035Z,79.59
2019-02-25T04:00:20.167Z,77.39
2019-02-25T04:01:20.290Z,77.88
2019-02-25T04:02:20.408Z,77.39
2019-02-25T04:03:20.553Z,77.15
2019-02-25T04:04:20.675Z,76.90
2019-02-25T04:05:20.804Z,76.17
2019-02-25T04:06:20.927Z,77.39
2019-02-25T04:07:21.070Z,76.17
2019-02-25T04:08:21.194Z,78.13
2019-02-25T04:09:21.321Z,76.90
2019-02-25T04:10:21.449Z,76.42
2019-02-25T04:11:21.575Z,76.90
2019-02-25T04:12:21.718Z,76.90
2019-02-25T04:13:21.825Z,80.08
2019-02-25T04:14:21.950Z,77.64
2019-02-25T04:15:22.069Z,75.93
2019-02-25T04:16:22.212Z,75.93
2019-02-25T04:17:22.330Z,77.39
2019-02-25T04:18:22.461Z,76.66
2019-02-25T04:19:22.589Z,76.90
2019-02-25T04:20:22.748Z,79.35
2019-02-25T04:21:22.867Z,77.15
2019-02-25T04:22:22.992Z,78.13
2019-02-25T04:23:23.111Z,78.86
2019-02-25T04:24:23.250Z,77.88
2019-02-25T04:25:23.375Z,77.39
2019-02-25T04:26:23.503Z,76.90
2019-02-25T04:27:23.619Z,77.15
2019-02-25T04:28:23.783Z,77.88
2019-02-25T04:29:23.895Z,79.10
2019-02-25T04:30:24.025Z,78.13
2019-02-25T04:31:24.141Z,78.13
2019-02-25T04:32:24.291Z,76.66
2019-02-25T04:33:24.417Z,77.88
2019-02-25T04:34:24.541Z,77.39
2019-02-25T04:35:24.677Z,78.13
2019-02-25T04:36:24.825Z,77.15
2019-02-25T04:37:24.933Z,78.13
2019-02-25T04:38:25.061Z,76.66
2019-02-25T04:39:25.205Z,77.64
2019-02-25T04:40:25.324Z,75.68
2019-02-25T04:41:25.453Z,77.88
2019-02-25T04:42:25.569Z,79.35
2019-02-25T04:43:25.715Z,75.68
2019-02-25T04:44:25.854Z,77.39
2019-02-25T04:45:25.973Z,76.42
2019-02-25T04:46:26.097Z,77.15
2019-02-25T04:47:26.258Z,77.39
2019-02-25T04:48:26.373Z,76.90
2019-02-25T04:49:26.489Z,77.64
2019-02-25T04:50:26.621Z,77.15
2019-02-25T04:51:26.778Z,76.66
2019-02-25T04:52:26.909Z,79.83
2019-02-25T04:53:27.023Z,76.66
2019-02-25T04:54:27.160Z,77.39
2019-02-25T04:55:27.286Z,77.15
2019-02-25T04:56:27.407Z,77.15
2019-02-25T04:57:27.560Z,78.37
2019-02-25T04:58:27.681Z,77.39
2019-02-25T04:59:27.815Z,79.59
2019-02-25T05:00:27.956Z,76.42
2019-02-25T05:01:28.088Z,76.17
2019-02-25T05:02:28.214Z,77.88
2019-02-25T05:03:28.338Z,75.93
2019-02-25T05:04:28.480Z,76.90
2019-02-25T05:05:28.612Z,77.64
2019-02-25T05:06:28.729Z,77.39
2019-02-25T05:07:28.864Z,75.68
2019-02-25T05:08:28.978Z,77.39
2019-02-25T05:09:29.101Z,77.39
2019-02-25T05:10:29.227Z,78.13
2019-02-25T05:11:29.366Z,77.39
2019-02-25T05:12:29.479Z,76.66
2019-02-25T05:13:29.601Z,76.42
2019-02-25T05:14:29.726Z,78.37
2019-02-25T05:15:29.863Z,77.15
2019-02-25T05:16:29.979Z,77.64
2019-02-25T05:17:30.112Z,77.64
2019-02-25T05:18:30.236Z,79.35
2019-02-25T05:19:30.364Z,76.42
2019-02-25T05:20:30.490Z,76.17
2019-02-25T05:21:30.618Z,75.93
2019-02-25T05:22:30.731Z,77.88
2019-02-25T05:23:30.858Z,76.90
2019-02-25T05:24:30.983Z,77.64
2019-02-25T05:25:31.108Z,77.88
2019-02-25T05:26:31.231Z,76.90
2019-02-25T05:27:31.357Z,77.39
2019-02-25T05:28:31.486Z,77.88
2019-02-25T05:29:31.606Z,78.37
2019-02-25T05:30:31.734Z,76.66
2019-02-25T05:31:31.861Z,78.37
2019-02-25T05:32:31.984Z,75.20
2019-02-25T05:33:32.117Z,78.86
2019-02-25T05:34:32.236Z,77.39
2019-02-25T05:35:32.368Z,80.32
2019-02-25T05:36:32.486Z,78.37
2019-02-25T05:37:32.620Z,77.88
2019-02-25T05:38:32.737Z,76.90
2019-02-25T05:39:32.863Z,79.35
2019-02-25T05:40:32.985Z,78.86
2019-02-25T05:41:33.107Z,77.64
2019-02-25T05:42:33.243Z,77.15
2019-02-25T05:43:33.369Z,76.66
2019-02-25T05:44:33.492Z,76.42
2019-02-25T05:45:33.631Z,77.88
2019-02-25T05:46:33.749Z,76.66
2019-02-25T05:47:33.874Z,77.39
2019-02-25T05:48:34.001Z,76.66
2019-02-25T05:49:34.144Z,77.15
2019-02-25T05:50:34.246Z,78.37
2019-02-25T05:51:34.373Z,81.30
2019-02-25T05:52:34.503Z,80.57
2019-02-25T05:53:34.619Z,77.39
2019-02-25T05:54:34.743Z,76.42
2019-02-25T05:55:34.877Z,76.90
2019-02-25T05:56:34.992Z,78.37
2019-02-25T05:57:35.110Z,78.86
2019-02-25T05:58:35.235Z,76.90
2019-02-25T05:59:35.364Z,78.13
2019-02-25T06:00:35.491Z,75.44
2019-02-25T06:01:35.603Z,77.15
2019-02-25T06:02:35.746Z,77.88
2019-02-25T06:03:35.881Z,77.64
2019-02-25T06:04:36.003Z,77.88
2019-02-25T06:05:36.127Z,77.64
2019-02-25T06:06:36.243Z,77.39
2019-02-25T06:07:36.377Z,77.15
2019-02-25T06:08:36.496Z,78.13
2019-02-25T06:09:36.631Z,78.13
2019-02-25T06:10:36.755Z,76.90
2019-02-25T06:11:36.872Z,77.15
2019-02-25T06:12:37.016Z,75.44
2019-02-25T06:13:37.137Z,77.64
2019-02-25T06:14:37.266Z,76.42
2019-02-25T06:15:37.383Z,77.88
2019-02-25T06:16:37.536Z,77.64
2019-02-25T06:17:37.646Z,79.10
2019-02-25T06:18:37.769Z,77.15
2019-02-25T06:19:37.906Z,77.39
2019-02-25T06:20:38.023Z,77.15
2019-02-25T06:21:38.150Z,76.90
2019-02-25T06:22:38.268Z,77.39
2019-02-25T06:23:38.384Z,76.42
2019-02-25T06:24:38.503Z,78.86
2019-02-25T06:25:38.631Z,77.88
2019-02-25T06:26:38.843Z,77.64
2019-02-25T06:27:38.881Z,79.83
2019-02-25T06:28:39.006Z,78.13
2019-02-25T06:29:39.145Z,76.42
2019-02-25T06:30:39.250Z,78.61
2019-02-25T06:31:39.381Z,77.64
2019-02-25T06:32:39.506Z,77.15
2019-02-25T06:33:39.633Z,77.15
2019-02-25T06:34:39.759Z,77.64
2019-02-25T06:35:39.884Z,77.64
2019-02-25T06:36:40.005Z,77.39
2019-02-25T06:37:40.130Z,77.15
2019-02-25T06:38:40.257Z,78.37
2019-02-25T06:39:40.384Z,78.86
2019-02-25T06:40:40.507Z,77.88
2019-02-25T06:41:40.634Z,77.15
2019-02-25T06:42:40.758Z,78.13
2019-02-25T06:43:40.883Z,76.90
2019-02-25T06:44:41.003Z,78.37
2019-02-25T06:45:41.131Z,77.39
2019-02-25T06:46:41.254Z,77.39
2019-02-25T06:47:41.380Z,77.64
2019-02-25T06:48:41.511Z,79.83
2019-02-25T06:49:41.637Z,76.90
2019-02-25T06:50:41.759Z,76.90
2019-02-25T06:51:41.882Z,79.10
2019-02-25T06:52:42.012Z,78.61
2019-02-25T06:53:42.130Z,79.10
2019-02-25T06:54:42.261Z,76.42
2019-02-25T06:55:42.380Z,79.10
2019-02-25T06:56:42.514Z,78.13
2019-02-25T06:57:42.628Z,76.90
2019-02-25T06:58:42.761Z,76.66
2019-02-25T06:59:42.884Z,77.64
2019-02-25T07:00:43.008Z,76.42
2019-02-25T07:01:43.138Z,80.08
2019-02-25T07:02:43.261Z,78.86
2019-02-25T07:03:43.701Z,76.42
2019-02-25T07:04:43.510Z,77.64
2019-02-25T07:05:43.637Z,77.15
2019-02-25T07:06:43.767Z,77.39
2019-02-25T07:07:43.891Z,76.90
2019-02-25T07:08:44.015Z,77.88
2019-02-25T07:09:44.132Z,78.37
2019-02-25T07:10:44.257Z,76.90
2019-02-25T07:11:44.378Z,79.83
2019-02-25T07:12:44.507Z,77.15
2019-02-25T07:13:44.619Z,76.42
2019-02-25T07:14:44.764Z,77.39
2019-02-25T07:15:44.899Z,76.42
2019-02-25T07:16:45.024Z,76.90
2019-02-25T07:17:45.150Z,76.17
2019-02-25T07:18:45.265Z,75.20
2019-02-25T07:19:45.424Z,76.90
2019-02-25T07:20:45.557Z,78.37
2019-02-25T07:21:45.674Z,78.13
2019-02-25T07:22:45.788Z,77.64
2019-02-25T07:23:45.949Z,76.17
2019-02-25T07:24:52.639Z,77.15
2019-02-25T07:25:46.194Z,79.35
2019-02-25T07:26:46.338Z,77.39
2019-02-25T07:27:46.458Z,77.64
2019-02-25T07:28:46.584Z,77.64
2019-02-25T07:29:46.705Z,79.10
2019-02-25T07:30:47.016Z,78.61
2019-02-25T07:31:47.011Z,77.39
2019-02-25T07:32:47.137Z,78.86
2019-02-25T07:33:47.266Z,77.88
2019-02-25T07:34:47.395Z,77.88
2019-02-25T07:35:47.521Z,78.13
2019-02-25T07:36:47.650Z,77.39
2019-02-25T07:37:47.768Z,79.59
2019-02-25T07:38:47.908Z,78.61
2019-02-25T07:39:48.042Z,78.37
2019-02-25T07:40:48.157Z,76.90
2019-02-25T07:41:48.319Z,77.88
2019-02-25T07:42:48.431Z,77.39
2019-02-25T07:43:48.560Z,77.64
2019-02-25T07:44:48.691Z,78.61
2019-02-25T07:45:48.830Z,78.61
2019-02-25T07:46:48.955Z,77.39
2019-02-25T07:47:49.078Z,77.64
2019-02-25T07:48:49.231Z,77.88
2019-02-25T07:49:49.351Z,76.66
2019-02-25T07:50:49.476Z,78.13
2019-02-25T07:51:49.604Z,77.39
2019-02-25T07:52:49.753Z,78.86
2019-02-25T07:53:49.874Z,77.64
2019-02-25T07:54:50.003Z,77.39
2019-02-25T07:55:50.129Z,83.50
2019-02-25T07:56:50.300Z,77.39
2019-02-25T07:57:50.431Z,78.86
2019-02-25T07:58:50.541Z,78.61
2019-02-25T07:59:50.677Z,76.66
2019-02-25T08:00:50.813Z,77.15
2019-02-25T08:01:50.939Z,77.88
2019-02-25T08:02:51.072Z,77.39
2019-02-25T08:03:51.241Z,80.57
2019-02-25T08:04:51.335Z,77.88
2019-02-25T08:05:51.462Z,77.64
2019-02-25T08:06:51.589Z,78.13
2019-02-25T08:07:51.718Z,77.88
2019-02-25T08:08:51.861Z,77.88
2019-02-25T08:09:51.997Z,78.37
2019-02-25T08:10:52.126Z,77.88
2019-02-25T08:11:52.249Z,78.13
2019-02-25T08:12:52.379Z,78.61
2019-02-25T08:13:52.513Z,76.66
2019-02-25T08:14:52.653Z,78.13
2019-02-25T08:15:52.815Z,77.64
2019-02-25T08:16:52.946Z,79.10
2019-02-25T08:17:53.066Z,76.42
2019-02-25T08:18:53.217Z,77.64
2019-02-25T08:19:53.337Z,77.15
2019-02-25T08:20:53.465Z,76.42
2019-02-25T08:21:53.600Z,78.13
2019-02-25T08:22:53.742Z,77.64
2019-02-25T08:23:53.871Z,78.86
2019-02-25T08:24:53.993Z,79.35
2019-02-25T08:25:54.114Z,77.39
2019-02-25T08:26:54.296Z,75.44
2019-02-25T08:27:54.419Z,77.15
2019-02-25T08:28:54.544Z,77.15
2019-02-25T08:29:54.670Z,76.90
2019-02-25T08:30:54.835Z,78.37
2019-02-25T08:31:54.959Z,76.66
2019-02-25T08:32:55.084Z,77.64
2019-02-25T08:33:55.577Z,75.93
2019-02-25T08:34:55.373Z,76.90
2019-02-25T08:35:55.511Z,74.71
2019-02-25T08:37:02.144Z,77.15
2019-02-25T08:37:55.763Z,75.20
2019-02-25T08:38:55.902Z,74.71
2019-02-25T08:39:56.036Z,73.00
2019-02-25T08:40:56.159Z,73.73
2019-02-25T08:41:56.304Z,75.44
2019-02-25T08:42:56.428Z,74.95
2019-02-25T08:43:56.554Z,73.24
2019-02-25T08:44:56.706Z,75.93
2019-02-25T08:45:56.831Z,75.44
2019-02-25T08:46:56.951Z,76.90
2019-02-25T08:47:57.076Z,72.27
2019-02-25T08:48:57.221Z,74.46
2019-02-25T08:49:57.348Z,74.95
2019-02-25T08:50:57.471Z,73.24
2019-02-25T08:51:57.609Z,73.24
2019-02-25T08:52:57.742Z,75.20
2019-02-25T08:53:57.857Z,72.02
2019-02-25T08:54:57.992Z,74.22
2019-02-25T08:55:58.402Z,74.46
2019-02-25T08:56:58.278Z,73.24
2019-02-25T08:57:58.425Z,76.17
2019-02-25T08:58:58.549Z,76.42
2019-02-25T08:59:58.680Z,76.42
2019-02-25T09:00:58.847Z,73.00
2019-02-25T09:01:58.972Z,76.42
2019-02-25T09:02:59.092Z,74.46
2019-02-25T09:03:59.217Z,75.44
2019-02-25T09:04:59.370Z,71.53
2019-02-25T09:05:59.485Z,74.71
2019-02-25T09:06:59.611Z,74.22
2019-02-25T09:07:59.743Z,77.39
2019-02-25T09:08:59.874Z,73.24
2019-02-25T09:09:59.995Z,74.46
2019-02-25T09:11:00.128Z,74.46
2019-02-25T09:12:00.281Z,76.66
2019-02-25T09:13:00.405Z,70.80
2019-02-25T09:14:00.535Z,73.49
2019-02-25T09:15:00.646Z,73.24
2019-02-25T09:16:00.811Z,72.51
2019-02-25T09:17:00.937Z,74.22
2019-02-25T09:18:01.043Z,73.00
2019-02-25T09:19:01.169Z,72.51
2019-02-25T09:20:01.313Z,73.24
2019-02-25T09:21:01.432Z,73.73
2019-02-25T09:22:01.566Z,72.02
2019-02-25T09:23:01.688Z,71.29
2019-02-25T09:24:01.839Z,73.24
2019-02-25T09:25:01.955Z,74.71
2019-02-25T09:26:02.082Z,73.73
2019-02-25T09:27:02.210Z,73.49
2019-02-25T09:28:02.368Z,75.44
2019-02-25T09:29:02.475Z,74.71
2019-02-25T09:30:02.605Z,72.75
2019-02-25T09:31:02.752Z,74.22
2019-02-25T09:32:02.904Z,74.46
2019-02-25T09:33:03.037Z,75.68
2019-02-25T09:34:03.161Z,71.53
2019-02-25T09:35:03.278Z,72.27
2019-02-25T09:36:03.410Z,74.71
2019-02-25T09:37:03.539Z,75.20
2019-02-25T09:38:03.686Z,72.02
2019-02-25T09:39:03.811Z,72.75
2019-02-25T09:40:03.949Z,80.57
2019-02-25T09:41:04.088Z,74.46
2019-02-25T09:42:04.217Z,73.24
2019-02-25T09:43:04.333Z,72.75
2019-02-25T09:44:04.461Z,74.22
2019-02-25T09:45:04.589Z,74.46
2019-02-25T09:46:04.718Z,73.24
2019-02-25T09:47:05.234Z,74.22
2019-02-25T09:48:04.979Z,72.51
2019-02-25T09:49:05.107Z,71.78
2019-02-25T09:50:05.235Z,74.46
2019-02-25T09:51:05.357Z,75.68
2019-02-25T09:52:05.491Z,76.90
2019-02-25T09:53:07.237Z,74.22
2019-02-25T09:54:05.733Z,75.68
2019-02-25T09:55:05.858Z,72.02
2019-02-25T09:56:05.979Z,72.02
2019-02-25T09:57:06.112Z,73.49
2019-02-25T09:58:06.238Z,75.68
2019-02-25T09:59:06.372Z,73.00
2019-02-25T10:00:06.498Z,72.51
2019-02-25T10:01:06.630Z,74.71
2019-02-25T10:02:06.755Z,74.71
2019-02-25T10:03:06.885Z,73.00
2019-02-25T10:04:08.743Z,74.22
2019-02-25T10:05:07.144Z,72.27
2019-02-25T10:06:07.282Z,75.93
2019-02-25T10:07:07.409Z,74.46
2019-02-25T10:08:07.540Z,74.71
2019-02-25T10:09:15.976Z,75.44
2019-02-25T10:10:07.864Z,72.75
2019-02-25T10:11:08.004Z,76.17
2019-02-25T10:12:08.121Z,74.22
2019-02-25T10:13:08.257Z,73.49
2019-02-25T10:14:08.386Z,75.68
2019-02-25T10:15:08.512Z,72.51
2019-02-25T10:16:08.651Z,78.37
2019-02-25T10:17:08.781Z,72.27
2019-02-25T10:18:08.912Z,76.66
2019-02-25T10:19:09.046Z,76.66
2019-02-25T10:20:09.171Z,73.49
2019-02-25T10:21:09.305Z,76.17
2019-02-25T10:22:09.430Z,71.53
2019-02-25T10:23:09.556Z,73.00
2019-02-25T10:24:09.683Z,72.51
2019-02-25T10:25:09.818Z,73.97
2019-02-25T10:26:09.959Z,78.13
2019-02-25T10:27:10.087Z,74.71
2019-02-25T10:28:10.216Z,70.07
2019-02-25T10:29:10.353Z,70.56
2019-02-25T10:30:10.485Z,71.53
2019-02-25T10:31:11.473Z,73.00
2019-02-25T10:32:10.747Z,70.31
2019-02-25T10:33:10.879Z,76.66
2019-02-25T10:34:11.008Z,74.95
2019-02-25T10:35:11.145Z,70.56
2019-02-25T10:36:11.281Z,74.22
2019-02-25T10:37:13.034Z,73.97
2019-02-25T10:38:11.566Z,72.75
2019-02-25T10:39:13.092Z,68.60
2019-02-25T10:40:13.236Z,73.00
2019-02-25T10:41:11.989Z,74.95
2019-02-25T10:42:12.133Z,74.46
2019-02-25T10:43:12.278Z,71.53
2019-02-25T10:44:12.427Z,74.22
2019-02-25T10:45:13.482Z,74.22
2019-02-25T10:46:13.877Z,72.02
2019-02-25T10:47:13.610Z,71.53
2019-02-25T10:48:12.970Z,73.73
2019-02-25T10:49:13.129Z,73.97
2019-02-25T10:50:13.261Z,70.80
2019-02-25T10:51:13.742Z,71.53
2019-02-25T10:52:15.151Z,69.09
2019-02-25T10:53:15.547Z,73.73
2019-02-25T10:54:14.724Z,73.49
2019-02-25T10:55:13.933Z,71.78
2019-02-25T10:56:16.220Z,72.75
2019-02-25T10:57:14.224Z,72.27
2019-02-25T10:58:14.367Z,72.02
2019-02-25T10:59:14.504Z,71.53
2019-02-25T11:00:14.647Z,71.78
2019-02-25T11:01:17.606Z,69.09
2019-02-25T11:02:15.403Z,83.25
2019-02-25T11:03:15.389Z,72.51
2019-02-25T11:04:17.385Z,70.56
2019-02-25T11:05:15.410Z,73.24
2019-02-25T11:06:15.539Z,72.02
2019-02-25T11:07:15.674Z,78.13
2019-02-25T11:08:15.822Z,70.80
2019-02-25T11:09:18.012Z,70.56
2019-02-25T11:10:18.056Z,73.49
2019-02-25T11:11:24.893Z,72.27
2019-02-25T11:12:21.576Z,70.80
2019-02-25T11:13:16.464Z,70.80
2019-02-25T11:14:16.598Z,72.27
2019-02-25T11:15:16.756Z,73.00
2019-02-25T11:16:18.695Z,72.02
2019-02-25T11:17:18.318Z,73.73
2019-02-25T11:18:19.524Z,72.02
2019-02-25T11:19:17.343Z,73.00
2019-02-25T11:20:17.475Z,75.20
2019-02-25T11:21:17.612Z,72.51
2019-02-25T11:22:17.761Z,70.31
2019-02-25T11:23:19.421Z,67.38
2019-02-25T11:24:19.147Z,74.46
2019-02-25T11:25:19.385Z,68.60
2019-02-25T11:26:18.353Z,66.89
2019-02-25T11:27:18.526Z,70.31
2019-02-25T11:28:25.517Z,73.73
2019-02-25T11:29:18.796Z,67.63
2019-02-25T11:30:20.763Z,72.02
2019-02-25T11:31:22.798Z,72.75
2019-02-25T11:32:19.874Z,73.73
2019-02-25T11:33:19.389Z,72.27
2019-02-25T11:34:19.538Z,70.07
2019-02-25T11:35:19.674Z,72.02
2019-02-25T11:36:21.925Z,73.24
2019-02-25T11:37:22.487Z,70.56
2019-02-25T11:38:20.123Z,70.80
2019-02-25T11:39:20.265Z,70.56
2019-02-25T11:40:20.413Z,71.04
2019-02-25T11:41:20.563Z,67.87
2019-02-25T11:42:20.743Z,71.78
2019-02-25T11:43:21.656Z,73.73
2019-02-25T11:44:21.179Z,70.31
2019-02-25T11:45:21.136Z,73.24
2019-02-25T11:46:21.301Z,69.58
2019-02-25T11:47:21.441Z,66.41
2019-02-25T11:48:22.697Z,71.04
2019-02-25T11:49:21.727Z,70.07
2019-02-25T11:50:21.905Z,71.04
2019-02-25T11:51:22.047Z,71.04
2019-02-25T11:52:22.191Z,70.07
2019-02-25T11:53:22.372Z,67.87
2019-02-25T11:54:22.519Z,70.56
2019-02-25T11:55:22.651Z,71.04
2019-02-25T11:56:22.801Z,71.78
2019-02-25T11:57:22.992Z,68.36
2019-02-25T11:58:23.127Z,70.31
2019-02-25T11:59:23.286Z,69.09
2019-02-25T12:00:23.443Z,66.89
2019-02-25T12:01:23.603Z,72.27
2019-02-25T12:02:25.975Z,73.00
2019-02-25T12:03:23.852Z,71.29
2019-02-25T12:04:23.995Z,72.02
2019-02-25T12:05:24.158Z,72.27
2019-02-25T12:06:24.313Z,70.56
2019-02-25T12:07:24.442Z,69.09
2019-02-25T12:08:24.665Z,70.07
2019-02-25T12:09:24.700Z,73.24
2019-02-25T12:10:24.835Z,70.56
2019-02-25T12:11:24.978Z,68.60
2019-02-25T12:14:40.281Z,62.50
2019-02-25T12:15:40.432Z,73.24
2019-02-25T12:16:40.565Z,72.75
2019-02-25T12:17:40.704Z,74.46
2019-02-25T12:18:42.858Z,69.09
2019-02-25T12:19:41.038Z,70.31
2019-02-25T12:20:41.319Z,68.36
2019-02-25T12:21:42.381Z,67.63
2019-02-25T12:22:41.576Z,70.80
2019-02-25T12:23:41.676Z,72.51
2019-02-25T12:24:41.982Z,70.07
2019-02-25T12:25:42.026Z,75.20
2019-02-25T12:26:42.131Z,69.58
2019-02-25T12:27:42.225Z,72.27
2019-02-25T12:28:42.373Z,71.29
2019-02-25T12:29:42.511Z,71.29
2019-02-25T12:30:42.546Z,74.46
2019-02-25T12:31:42.643Z,73.24
2019-02-25T12:32:42.856Z,75.44
2019-02-25T12:33:42.898Z,73.00
2019-02-25T12:34:43.119Z,69.58
2019-02-25T12:35:43.215Z,75.93
2019-02-25T12:36:43.347Z,72.27
2019-02-25T12:37:43.434Z,72.02
2019-02-25T12:38:43.485Z,71.78
2019-02-25T12:39:43.712Z,74.46
2019-02-25T12:40:43.770Z,71.29
2019-02-25T12:41:43.980Z,71.53
2019-02-25T12:42:44.290Z,77.39
2019-02-25T12:43:44.398Z,74.22
2019-02-25T12:44:44.584Z,69.82
2019-02-25T12:45:44.788Z,71.04
2019-02-25T12:46:44.923Z,71.53
2019-02-25T12:47:45.061Z,73.73
2019-02-25T12:48:45.361Z,74.95
2019-02-25T12:52:17.399Z,72.27
2019-02-25T12:53:17.540Z,71.78
2019-02-25T12:54:17.738Z,72.75
2019-02-25T12:55:17.877Z,73.00
2019-02-25T12:56:18.036Z,69.34
2019-02-25T12:57:18.174Z,70.80
2019-02-25T12:58:18.354Z,69.82
2019-02-25T12:59:18.512Z,71.53